Time,TemperatureF,DewpointF,PressureIn,WindDirection,WindDirectionDegrees,WindSpeedMPH,WindSpeedGustMPH,Humidity,HourlyPrecipIn,Conditions,Clouds,dailyrainin,SoftwareType,DateUTC
2013-02-06 00:03:00,41.4,34.0,29.35,North,0,0.0,0.0,75,0.00,,,0.00,WUHU216HW,2013-02-06 08:03:00,
2013-02-06 00:08:00,41.6,33.8,29.36,North,0,0.0,0.0,74,0.00,,,0.00,WUHU216HW,2013-02-06 08:08:00,
2013-02-06 00:13:00,41.6,34.2,29.36,North,0,0.0,0.0,75,0.00,,,0.00,WUHU216HW,2013-02-06 08:13:00,
2013-02-06 00:18:00,41.8,34.4,29.36,North,0,0.0,0.0,75,0.00,,,0.00,WUHU216HW,2013-02-06 08:18:00,
2013-02-06 00:23:00,41.8,34.0,29.36,North,0,0.0,0.0,74,0.00,,,0.00,WUHU216HW,2013-02-06 08:23:00,
2013-02-06 00:28:00,41.9,34.2,29.36,North,0,0.0,0.0,74,0.00,,,0.00,WUHU216HW,2013-02-06 08:28:00,
2013-02-06 00:33:00,41.8,34.0,29.36,North,0,0.0,0.0,74,0.00,,,0.00,WUHU216HW,2013-02-06 08:33:00,
2013-02-06 00:38:00,41.9,34.2,29.36,North,0,0.0,0.0,74,0.00,,,0.00,WUHU216HW,2013-02-06 08:38:00,
2013-02-06 00:43:00,41.9,34.2,29.37,North,0,0.0,0.0,74,0.00,,,0.00,WUHU216HW,2013-02-06 08:43:00,
2013-02-06 00:48:00,41.8,34.0,29.37,North,0,0.0,0.0,74,0.00,,,0.00,WUHU216HW,2013-02-06 08:48:00,
2013-02-06 00:53:00,41.4,34.0,29.37,North,0,0.0,0.0,75,0.00,,,0.00,WUHU216HW,2013-02-06 08:53:00,
2013-02-06 00:58:00,41.2,34.2,29.37,North,0,0.0,0.0,76,0.00,,,0.00,WUHU216HW,2013-02-06 08:58:00,
2013-02-06 01:04:00,41.0,34.0,29.38,North,0,0.0,0.0,76,0.00,,,0.00,WUHU216HW,2013-02-06 09:04:00,
2013-02-06 01:09:00,41.0,34.3,29.38,North,0,0.0,0.0,77,0.00,,,0.00,WUHU216HW,2013-02-06 09:09:00,
2013-02-06 01:14:00,41.6,34.6,29.38,North,0,0.0,0.0,76,0.00,,,0.00,WUHU216HW,2013-02-06 09:14:00,
2013-02-06 01:19:00,41.6,34.6,29.37,North,0,0.0,0.0,76,0.00,,,0.00,WUHU216HW,2013-02-06 09:19:00,
2013-02-06 01:24:00,41.4,34.4,29.37,North,0,0.0,0.0,76,0.00,,,0.00,WUHU216HW,2013-02-06 09:24:00,
2013-02-06 01:29:00,41.6,34.6,29.37,North,0,0.0,0.0,76,0.00,,,0.00,WUHU216HW,2013-02-06 09:29:00,
2013-02-06 01:34:00,41.6,34.6,29.37,North,0,0.0,0.0,76,0.00,,,0.00,WUHU216HW,2013-02-06 09:34:00,
2013-02-06 01:39:00,41.8,34.4,29.38,North,0,0.0,0.0,75,0.00,,,0.00,WUHU216HW,2013-02-06 09:39:00,
2013-02-06 01:44:00,41.8,34.4,29.37,North,0,0.0,0.0,75,0.00,,,0.00,WUHU216HW,2013-02-06 09:44:00,
2013-02-06 01:49:00,41.4,34.4,29.37,North,0,0.0,0.0,76,0.00,,,0.00,WUHU216HW,2013-02-06 09:49:00,
2013-02-06 01:54:00,41.2,34.2,29.37,North,0,0.0,0.0,76,0.00,,,0.00,WUHU216HW,2013-02-06 09:54:00,
2013-02-06 01:59:00,41.6,34.6,29.37,North,0,0.0,0.0,76,0.00,,,0.00,WUHU216HW,2013-02-06 09:59:00,
2013-02-06 02:04:00,42.7,34.9,29.37,North,0,0.0,0.0,74,0.00,,,0.00,WUHU216HW,2013-02-06 10:04:00,
2013-02-06 02:09:00,42.8,34.8,29.37,North,0,0.0,0.0,73,0.00,,,0.00,WUHU216HW,2013-02-06 10:09:00,
2013-02-06 02:14:00,42.8,34.8,29.38,North,0,0.0,0.0,73,0.00,,,0.00,WUHU216HW,2013-02-06 10:14:00,
2013-02-06 02:19:00,42.7,34.7,29.38,North,0,0.0,0.0,73,0.00,,,0.00,WUHU216HW,2013-02-06 10:19:00,
2013-02-06 02:24:00,42.5,34.7,29.38,North,0,0.0,0.0,74,0.00,,,0.00,WUHU216HW,2013-02-06 10:24:00,
2013-02-06 02:29:00,42.1,34.4,29.39,North,0,0.0,0.0,74,0.00,,,0.00,WUHU216HW,2013-02-06 10:29:00,
2013-02-06 02:34:00,41.6,34.2,29.39,North,0,0.0,0.0,75,0.00,,,0.00,WUHU216HW,2013-02-06 10:34:00,
2013-02-06 02:39:00,41.4,34.4,29.39,North,0,0.0,0.0,76,0.00,,,0.00,WUHU216HW,2013-02-06 10:39:00,
2013-02-06 02:44:00,41.2,34.2,29.39,North,0,0.0,0.0,76,0.00,,,0.00,WUHU216HW,2013-02-06 10:44:00,
2013-02-06 02:49:00,41.2,34.2,29.38,North,0,0.0,0.0,76,0.00,,,0.00,WUHU216HW,2013-02-06 10:49:00,
2013-02-06 02:54:00,41.2,34.2,29.38,North,0,0.0,0.0,76,0.00,,,0.00,WUHU216HW,2013-02-06 10:54:00,
2013-02-06 02:59:00,41.2,34.2,29.38,North,0,0.0,0.0,76,0.00,,,0.00,WUHU216HW,2013-02-06 10:59:00,
2013-02-06 03:04:00,41.2,34.2,29.38,North,0,0.0,0.0,76,0.00,,,0.00,WUHU216HW,2013-02-06 11:04:00,
2013-02-06 03:09:00,41.0,34.0,29.38,North,0,0.0,0.0,76,0.00,,,0.00,WUHU216HW,2013-02-06 11:09:00,
2013-02-06 03:14:00,40.9,33.9,29.38,North,0,0.0,0.0,76,0.00,,,0.00,WUHU216HW,2013-02-06 11:14:00,
2013-02-06 03:19:00,41.0,34.0,29.39,North,0,0.0,0.0,76,0.00,,,0.00,WUHU216HW,2013-02-06 11:19:00,
2013-02-06 03:24:00,41.4,34.4,29.39,North,0,0.0,0.0,76,0.00,,,0.00,WUHU216HW,2013-02-06 11:24:00,
2013-02-06 03:29:00,41.2,34.2,29.39,North,0,0.0,0.0,76,0.00,,,0.00,WUHU216HW,2013-02-06 11:29:00,
2013-02-06 03:34:00,41.0,34.0,29.40,North,0,0.0,0.0,76,0.00,,,0.00,WUHU216HW,2013-02-06 11:34:00,
2013-02-06 03:39:00,40.9,33.9,29.40,North,0,0.0,0.0,76,0.00,,,0.00,WUHU216HW,2013-02-06 11:39:00,
2013-02-06 03:44:00,40.9,34.1,29.40,North,0,0.0,0.0,77,0.00,,,0.00,WUHU216HW,2013-02-06 11:44:00,
2013-02-06 03:49:00,40.7,33.9,29.40,North,0,0.0,0.0,77,0.00,,,0.00,WUHU216HW,2013-02-06 11:49:00,
2013-02-06 03:54:00,40.7,33.9,29.40,North,0,0.0,0.0,77,0.00,,,0.00,WUHU216HW,2013-02-06 11:54:00,
2013-02-06 03:59:00,40.9,34.1,29.40,North,0,0.0,0.0,77,0.00,,,0.00,WUHU216HW,2013-02-06 11:59:00,
2013-02-06 04:04:00,40.9,34.1,29.40,North,0,0.0,0.0,77,0.00,,,0.00,WUHU216HW,2013-02-06 12:04:00,
2013-02-06 04:09:00,40.7,33.9,29.40,North,0,0.0,0.0,77,0.00,,,0.00,WUHU216HW,2013-02-06 12:09:00,
2013-02-06 04:14:00,41.2,34.2,29.40,North,0,0.0,0.0,76,0.00,,,0.00,WUHU216HW,2013-02-06 12:14:00,
2013-02-06 04:19:00,41.2,34.2,29.40,North,0,0.0,0.0,76,0.00,,,0.00,WUHU216HW,2013-02-06 12:19:00,
2013-02-06 04:24:00,41.2,34.2,29.41,North,0,0.0,0.0,76,0.00,,,0.00,WUHU216HW,2013-02-06 12:24:00,
2013-02-06 04:29:00,41.0,34.0,29.41,North,0,0.0,0.0,76,0.00,,,0.00,WUHU216HW,2013-02-06 12:29:00,
2013-02-06 04:34:00,41.2,34.2,29.41,North,0,0.0,0.0,76,0.00,,,0.00,WUHU216HW,2013-02-06 12:34:00,
2013-02-06 04:39:00,41.4,34.0,29.41,North,0,0.0,0.0,75,0.00,,,0.00,WUHU216HW,2013-02-06 12:39:00,
2013-02-06 04:44:00,41.0,33.7,29.41,North,0,0.0,0.0,75,0.00,,,0.00,WUHU216HW,2013-02-06 12:44:00,
2013-02-06 04:49:00,40.7,33.7,29.42,North,0,0.0,0.0,76,0.00,,,0.00,WUHU216HW,2013-02-06 12:49:00,
2013-02-06 04:54:00,40.5,33.5,29.42,North,0,0.0,0.0,76,0.00,,,0.00,WUHU216HW,2013-02-06 12:54:00,
2013-02-06 04:59:00,40.3,33.7,29.42,North,0,0.0,0.0,77,0.00,,,0.00,WUHU216HW,2013-02-06 12:59:00,
2013-02-06 05:04:00,40.3,33.7,29.42,North,0,0.0,0.0,77,0.00,,,0.00,WUHU216HW,2013-02-06 13:04:00,
2013-02-06 05:09:00,40.3,33.7,29.42,North,0,0.0,0.0,77,0.00,,,0.00,WUHU216HW,2013-02-06 13:09:00,
2013-02-06 05:14:00,40.1,33.5,29.42,North,0,0.0,0.0,77,0.00,,,0.00,WUHU216HW,2013-02-06 13:14:00,
2013-02-06 05:19:00,40.1,33.5,29.42,North,0,0.0,0.0,77,0.00,,,0.00,WUHU216HW,2013-02-06 13:19:00,
2013-02-06 05:24:00,40.1,33.5,29.42,North,0,0.0,0.0,77,0.00,,,0.00,WUHU216HW,2013-02-06 13:24:00,
2013-02-06 05:29:00,40.0,33.3,29.43,North,0,0.0,0.0,77,0.00,,,0.00,WUHU216HW,2013-02-06 13:29:00,
2013-02-06 05:34:00,39.8,33.1,29.43,North,0,0.0,0.0,77,0.00,,,0.00,WUHU216HW,2013-02-06 13:34:00,
2013-02-06 05:39:00,39.8,33.1,29.42,North,0,0.0,0.0,77,0.00,,,0.00,WUHU216HW,2013-02-06 13:39:00,
2013-02-06 05:44:00,39.8,33.1,29.42,North,0,0.0,0.0,77,0.00,,,0.00,WUHU216HW,2013-02-06 13:44:00,
2013-02-06 05:49:00,40.3,33.7,29.41,North,0,0.0,0.0,77,0.00,,,0.00,WUHU216HW,2013-02-06 13:49:00,
2013-02-06 05:54:00,40.7,33.7,29.41,North,0,0.0,0.0,76,0.00,,,0.00,WUHU216HW,2013-02-06 13:54:00,
2013-02-06 05:59:00,41.0,34.0,29.40,North,0,0.0,0.0,76,0.00,,,0.00,WUHU216HW,2013-02-06 13:59:00,
2013-02-06 06:04:00,41.2,33.8,29.40,North,0,0.0,0.0,75,0.00,,,0.00,WUHU216HW,2013-02-06 14:04:00,
2013-02-06 06:09:00,41.4,33.7,29.40,North,0,0.0,0.0,74,0.00,,,0.00,WUHU216HW,2013-02-06 14:09:00,
2013-02-06 06:14:00,41.4,33.7,29.40,North,0,0.0,0.0,74,0.00,,,0.00,WUHU216HW,2013-02-06 14:14:00,
2013-02-06 06:19:00,41.4,33.7,29.40,North,0,0.0,0.0,74,0.00,,,0.00,WUHU216HW,2013-02-06 14:19:00,
2013-02-06 06:24:00,41.0,33.3,29.41,North,0,0.0,0.0,74,0.00,,,0.00,WUHU216HW,2013-02-06 14:24:00,
2013-02-06 06:29:00,41.0,33.3,29.42,North,0,0.0,0.0,74,0.00,,,0.00,WUHU216HW,2013-02-06 14:29:00,
2013-02-06 06:34:00,41.0,33.3,29.42,North,0,0.0,0.0,74,0.00,,,0.00,WUHU216HW,2013-02-06 14:34:00,
2013-02-06 06:39:00,40.9,33.1,29.42,North,0,0.0,0.0,74,0.00,,,0.00,WUHU216HW,2013-02-06 14:39:00,
2013-02-06 06:44:00,40.7,33.3,29.42,North,0,0.0,0.0,75,0.00,,,0.00,WUHU216HW,2013-02-06 14:44:00,
2013-02-06 06:49:00,40.5,33.1,29.42,North,0,0.0,0.0,75,0.00,,,0.00,WUHU216HW,2013-02-06 14:49:00,
2013-02-06 06:54:00,40.7,33.3,29.42,North,0,0.0,0.0,75,0.00,,,0.00,WUHU216HW,2013-02-06 14:54:00,
2013-02-06 06:59:00,40.3,33.3,29.42,North,0,0.0,0.0,76,0.00,,,0.00,WUHU216HW,2013-02-06 14:59:00,
2013-02-06 07:04:00,40.3,33.3,29.42,North,0,0.0,0.0,76,0.00,,,0.00,WUHU216HW,2013-02-06 15:04:00,
2013-02-06 07:09:00,40.3,32.9,29.42,North,0,0.0,0.0,75,0.00,,,0.00,WUHU216HW,2013-02-06 15:09:00,
2013-02-06 07:14:00,40.5,33.1,29.42,North,0,0.0,0.0,75,0.00,,,0.00,WUHU216HW,2013-02-06 15:14:00,
2013-02-06 07:19:00,40.3,33.3,29.42,North,0,0.0,0.0,76,0.00,,,0.00,WUHU216HW,2013-02-06 15:19:00,
2013-02-06 07:24:00,40.3,33.3,29.42,North,0,0.0,0.0,76,0.00,,,0.00,WUHU216HW,2013-02-06 15:24:00,
2013-02-06 07:29:00,40.3,33.7,29.42,North,0,0.0,0.0,77,0.00,,,0.00,WUHU216HW,2013-02-06 15:29:00,
2013-02-06 07:34:00,40.7,33.7,29.42,North,0,0.0,0.0,76,0.00,,,0.00,WUHU216HW,2013-02-06 15:34:00,
2013-02-06 07:39:00,41.0,33.7,29.42,North,0,0.0,0.0,75,0.00,,,0.00,WUHU216HW,2013-02-06 15:39:00,
2013-02-06 07:44:00,41.4,33.7,29.42,North,0,0.0,0.0,74,0.00,,,0.00,WUHU216HW,2013-02-06 15:44:00,
2013-02-06 07:49:00,41.6,33.8,29.41,North,0,0.0,0.0,74,0.00,,,0.00,WUHU216HW,2013-02-06 15:49:00,
2013-02-06 07:55:00,41.8,34.0,29.42,North,0,0.0,0.0,74,0.00,,,0.00,WUHU216HW,2013-02-06 15:55:00,
2013-02-06 08:00:00,41.8,34.0,29.42,North,0,0.0,0.0,74,0.00,,,0.00,WUHU216HW,2013-02-06 16:00:00,
2013-02-06 08:05:00,42.1,34.1,29.42,North,0,0.0,0.0,73,0.00,,,0.00,WUHU216HW,2013-02-06 16:05:00,
2013-02-06 08:10:00,42.3,34.3,29.42,North,0,0.0,0.0,73,0.00,,,0.00,WUHU216HW,2013-02-06 16:10:00,
2013-02-06 08:15:00,42.5,34.1,29.42,North,0,0.0,0.0,72,0.00,,,0.00,WUHU216HW,2013-02-06 16:15:00,
2013-02-06 08:20:00,42.8,34.5,29.42,North,0,0.0,0.0,72,0.00,,,0.00,WUHU216HW,2013-02-06 16:20:00,
2013-02-06 08:25:00,42.8,34.2,29.43,North,0,0.0,0.0,71,0.00,,,0.00,WUHU216HW,2013-02-06 16:25:00,
2013-02-06 08:30:00,43.0,34.3,29.43,North,0,0.0,0.0,71,0.00,,,0.00,WUHU216HW,2013-02-06 16:30:00,
2013-02-06 08:35:00,42.8,34.2,29.44,North,0,0.0,0.0,71,0.00,,,0.00,WUHU216HW,2013-02-06 16:35:00,
2013-02-06 08:40:00,43.0,34.3,29.44,North,0,0.0,0.0,71,0.00,,,0.00,WUHU216HW,2013-02-06 16:40:00,
2013-02-06 08:45:00,43.2,34.5,29.44,North,0,0.0,0.0,71,0.00,,,0.00,WUHU216HW,2013-02-06 16:45:00,
2013-02-06 08:50:00,43.2,34.5,29.44,North,0,0.0,0.0,71,0.00,,,0.00,WUHU216HW,2013-02-06 16:50:00,
2013-02-06 08:55:00,43.2,34.5,29.44,North,0,0.0,0.0,71,0.00,,,0.00,WUHU216HW,2013-02-06 16:55:00,
2013-02-06 09:00:00,43.4,34.7,29.45,North,0,0.0,0.0,71,0.00,,,0.00,WUHU216HW,2013-02-06 17:00:00,
2013-02-06 09:05:00,43.6,34.5,29.44,North,0,0.0,0.0,70,0.00,,,0.00,WUHU216HW,2013-02-06 17:05:00,
2013-02-06 09:10:00,43.7,33.8,29.44,North,0,0.0,0.0,68,0.00,,,0.00,WUHU216HW,2013-02-06 17:10:00,
2013-02-06 09:15:00,44.1,34.2,29.44,North,0,0.0,0.0,68,0.00,,,0.00,WUHU216HW,2013-02-06 17:15:00,
2013-02-06 09:20:00,44.3,34.4,29.44,North,0,0.0,0.0,68,0.00,,,0.00,WUHU216HW,2013-02-06 17:20:00,
2013-02-06 09:25:00,44.3,34.4,29.44,North,0,0.0,0.0,68,0.00,,,0.00,WUHU216HW,2013-02-06 17:25:00,
2013-02-06 09:30:00,44.3,34.4,29.45,North,0,0.0,0.0,68,0.00,,,0.00,WUHU216HW,2013-02-06 17:30:00,
2013-02-06 09:35:00,44.3,34.4,29.45,North,0,0.0,0.0,68,0.00,,,0.00,WUHU216HW,2013-02-06 17:35:00,
2013-02-06 09:40:00,44.6,34.8,29.46,North,0,0.0,0.0,68,0.00,,,0.00,WUHU216HW,2013-02-06 17:40:00,
2013-02-06 09:45:00,44.8,34.9,29.46,North,0,0.0,0.0,68,0.00,,,0.00,WUHU216HW,2013-02-06 17:45:00,
2013-02-06 09:50:00,44.8,34.9,29.46,North,0,0.0,0.0,68,0.00,,,0.00,WUHU216HW,2013-02-06 17:50:00,
2013-02-06 09:55:00,44.8,34.9,29.45,North,0,0.0,0.0,68,0.00,,,0.00,WUHU216HW,2013-02-06 17:55:00,
2013-02-06 10:00:00,45.0,35.1,29.46,North,0,0.0,0.0,68,0.00,,,0.00,WUHU216HW,2013-02-06 18:00:00,
2013-02-06 10:05:00,45.5,35.2,29.46,North,0,0.0,0.0,67,0.00,,,0.00,WUHU216HW,2013-02-06 18:05:00,
2013-02-06 10:10:00,46.1,35.7,29.46,North,0,0.0,0.0,67,0.00,,,0.00,WUHU216HW,2013-02-06 18:10:00,
2013-02-06 10:15:00,46.3,35.1,29.46,North,0,0.0,0.0,65,0.00,,,0.00,WUHU216HW,2013-02-06 18:15:00,
2013-02-06 10:20:00,46.4,34.9,29.46,North,0,0.0,0.0,64,0.00,,,0.00,WUHU216HW,2013-02-06 18:20:00,
2013-02-06 10:25:00,46.8,35.2,29.47,North,0,0.0,0.0,64,0.00,,,0.00,WUHU216HW,2013-02-06 18:25:00,
2013-02-06 10:30:00,46.8,34.8,29.47,North,0,0.0,0.0,63,0.00,,,0.00,WUHU216HW,2013-02-06 18:30:00,
2013-02-06 10:35:00,47.2,34.8,29.47,North,0,0.0,0.0,62,0.00,,,0.00,WUHU216HW,2013-02-06 18:35:00,
2013-02-06 10:40:00,47.5,34.7,29.47,North,0,0.0,0.0,61,0.00,,,0.00,WUHU216HW,2013-02-06 18:40:00,
2013-02-06 10:45:00,47.7,35.4,29.47,North,0,0.0,0.0,62,0.00,,,0.00,WUHU216HW,2013-02-06 18:45:00,
2013-02-06 10:50:00,47.9,35.1,29.47,North,0,0.0,0.0,61,0.00,,,0.00,WUHU216HW,2013-02-06 18:50:00,
2013-02-06 10:55:00,47.9,35.1,29.47,North,0,0.0,0.0,61,0.00,,,0.00,WUHU216HW,2013-02-06 18:55:00,
2013-02-06 11:00:00,48.1,35.3,29.47,North,0,0.0,0.0,61,0.00,,,0.00,WUHU216HW,2013-02-06 19:00:00,
2013-02-06 11:05:00,48.2,35.5,29.47,North,0,0.0,0.0,61,0.00,,,0.00,WUHU216HW,2013-02-06 19:05:00,
2013-02-06 11:10:00,48.4,35.6,29.47,North,0,0.0,0.0,61,0.00,,,0.00,WUHU216HW,2013-02-06 19:10:00,
2013-02-06 11:15:00,48.2,35.5,29.47,North,0,0.0,0.0,61,0.00,,,0.00,WUHU216HW,2013-02-06 19:15:00,
2013-02-06 11:20:00,48.4,35.3,29.47,North,0,0.0,0.0,60,0.00,,,0.00,WUHU216HW,2013-02-06 19:20:00,
2013-02-06 11:25:00,48.6,35.5,29.47,North,0,0.0,0.0,60,0.00,,,0.00,WUHU216HW,2013-02-06 19:25:00,
2013-02-06 11:30:00,48.8,35.6,29.47,North,0,0.0,0.0,60,0.00,,,0.00,WUHU216HW,2013-02-06 19:30:00,
2013-02-06 11:35:00,49.0,35.3,29.47,North,0,0.0,0.0,59,0.00,,,0.00,WUHU216HW,2013-02-06 19:35:00,
2013-02-06 11:40:00,49.3,36.1,29.47,North,0,0.0,0.0,60,0.00,,,0.00,WUHU216HW,2013-02-06 19:40:00,
2013-02-06 11:45:00,49.5,35.3,29.46,North,0,0.0,0.0,58,0.00,,,0.00,WUHU216HW,2013-02-06 19:45:00,
2013-02-06 11:50:00,49.5,36.3,29.46,North,0,0.0,0.0,60,0.00,,,0.00,WUHU216HW,2013-02-06 19:50:00,
2013-02-06 11:55:00,49.5,35.3,29.46,North,0,0.0,0.0,58,0.00,,,0.00,WUHU216HW,2013-02-06 19:55:00,
2013-02-06 12:00:00,49.5,35.3,29.46,North,0,0.0,0.0,58,0.00,,,0.00,WUHU216HW,2013-02-06 20:00:00,
2013-02-06 12:05:00,49.3,35.2,29.46,North,0,0.0,0.0,58,0.00,,,0.00,WUHU216HW,2013-02-06 20:05:00,
2013-02-06 12:10:00,49.3,35.2,29.46,North,0,0.0,0.0,58,0.00,,,0.00,WUHU216HW,2013-02-06 20:10:00,
2013-02-06 12:15:00,49.1,35.5,29.46,North,0,0.0,0.0,59,0.00,,,0.00,WUHU216HW,2013-02-06 20:15:00,
2013-02-06 12:20:00,49.0,35.3,29.45,North,0,0.0,0.0,59,0.00,,,0.00,WUHU216HW,2013-02-06 20:20:00,
2013-02-06 12:25:00,49.0,35.7,29.45,North,0,0.0,0.0,60,0.00,,,0.00,WUHU216HW,2013-02-06 20:25:00,
2013-02-06 12:30:00,49.0,35.7,29.45,North,0,0.0,0.0,60,0.00,,,0.00,WUHU216HW,2013-02-06 20:30:00,
2013-02-06 12:35:00,49.0,35.3,29.45,North,0,0.0,0.0,59,0.00,,,0.00,WUHU216HW,2013-02-06 20:35:00,
2013-02-06 12:40:00,49.0,35.3,29.44,North,0,0.0,0.0,59,0.00,,,0.00,WUHU216HW,2013-02-06 20:40:00,
2013-02-06 12:45:00,49.1,35.5,29.44,North,0,0.0,0.0,59,0.00,,,0.00,WUHU216HW,2013-02-06 20:45:00,
2013-02-06 12:50:00,49.5,35.8,29.44,North,0,0.0,0.0,59,0.00,,,0.00,WUHU216HW,2013-02-06 20:50:00,
2013-02-06 12:55:00,49.7,35.0,29.44,North,0,0.0,0.0,57,0.00,,,0.00,WUHU216HW,2013-02-06 20:55:00,
2013-02-06 13:00:00,50.0,35.4,29.44,North,0,0.0,0.0,57,0.00,,,0.00,WUHU216HW,2013-02-06 21:00:00,
2013-02-06 13:05:00,50.6,35.8,29.44,North,0,0.0,0.0,57,0.00,,,0.00,WUHU216HW,2013-02-06 21:05:00,
2013-02-06 13:10:00,50.8,35.1,29.44,North,0,0.0,0.0,55,0.00,,,0.00,WUHU216HW,2013-02-06 21:10:00,
2013-02-06 13:15:00,50.9,34.8,29.44,North,0,0.0,0.0,54,0.00,,,0.00,WUHU216HW,2013-02-06 21:15:00,
2013-02-06 13:20:00,50.8,34.7,29.44,North,0,0.0,0.0,54,0.00,,,0.00,WUHU216HW,2013-02-06 21:20:00,
2013-02-06 13:25:00,50.9,34.4,29.44,North,0,0.0,0.0,53,0.00,,,0.00,WUHU216HW,2013-02-06 21:25:00,
2013-02-06 13:30:00,51.1,35.0,29.44,North,0,0.0,0.0,54,0.00,,,0.00,WUHU216HW,2013-02-06 21:30:00,
2013-02-06 13:35:00,51.5,34.4,29.44,North,0,0.0,0.0,52,0.00,,,0.00,WUHU216HW,2013-02-06 21:35:00,
2013-02-06 13:40:00,51.1,33.7,29.44,North,0,0.0,0.0,51,0.00,,,0.00,WUHU216HW,2013-02-06 21:40:00,
2013-02-06 13:45:00,51.3,34.8,29.44,North,0,0.0,0.0,53,0.00,,,0.00,WUHU216HW,2013-02-06 21:45:00,
2013-02-06 13:50:00,51.5,34.4,29.43,North,0,0.0,0.0,52,0.00,,,0.00,WUHU216HW,2013-02-06 21:50:00,
2013-02-06 13:55:00,51.7,34.1,29.43,North,0,0.0,0.0,51,0.00,,,0.00,WUHU216HW,2013-02-06 21:55:00,
2013-02-06 14:00:00,51.8,34.3,29.43,North,0,0.0,0.0,51,0.00,,,0.00,WUHU216HW,2013-02-06 22:00:00,
2013-02-06 14:05:00,52.2,35.1,29.43,North,0,0.0,0.0,52,0.00,,,0.00,WUHU216HW,2013-02-06 22:05:00,
2013-02-06 14:10:00,52.2,34.2,29.43,North,0,0.0,0.0,50,0.00,,,0.00,WUHU216HW,2013-02-06 22:10:00,
2013-02-06 14:15:00,52.2,34.2,29.43,North,0,0.0,0.0,50,0.00,,,0.00,WUHU216HW,2013-02-06 22:15:00,
2013-02-06 14:20:00,52.2,34.2,29.43,North,0,0.0,0.0,50,0.00,,,0.00,WUHU216HW,2013-02-06 22:20:00,
2013-02-06 14:25:00,52.2,34.2,29.43,North,0,0.0,0.0,50,0.00,,,0.00,WUHU216HW,2013-02-06 22:25:00,
2013-02-06 14:30:00,52.2,34.2,29.42,North,0,0.0,0.0,50,0.00,,,0.00,WUHU216HW,2013-02-06 22:30:00,
2013-02-06 14:35:00,52.2,34.2,29.43,North,0,0.0,0.0,50,0.00,,,0.00,WUHU216HW,2013-02-06 22:35:00,
2013-02-06 14:40:00,52.2,34.7,29.43,North,0,0.0,0.0,51,0.00,,,0.00,WUHU216HW,2013-02-06 22:40:00,
2013-02-06 14:45:00,52.2,34.7,29.43,North,0,0.0,0.0,51,0.00,,,0.00,WUHU216HW,2013-02-06 22:45:00,
2013-02-06 14:50:00,51.8,34.3,29.42,North,0,0.0,0.0,51,0.00,,,0.00,WUHU216HW,2013-02-06 22:50:00,
2013-02-06 14:55:00,51.8,34.3,29.42,North,0,0.0,0.0,51,0.00,,,0.00,WUHU216HW,2013-02-06 22:55:00,
2013-02-06 15:00:00,51.8,34.3,29.42,North,0,0.0,0.0,51,0.00,,,0.00,WUHU216HW,2013-02-06 23:00:00,
2013-02-06 15:05:00,51.8,34.7,29.42,North,0,0.0,0.0,52,0.00,,,0.00,WUHU216HW,2013-02-06 23:05:00,
2013-02-06 15:10:00,52.0,35.4,29.42,North,0,0.0,0.0,53,0.00,,,0.00,WUHU216HW,2013-02-06 23:10:00,
2013-02-06 15:15:00,51.8,35.2,29.42,North,0,0.0,0.0,53,0.00,,,0.00,WUHU216HW,2013-02-06 23:15:00,
2013-02-06 15:20:00,51.7,35.0,29.42,North,0,0.0,0.0,53,0.00,,,0.00,WUHU216HW,2013-02-06 23:20:00,
2013-02-06 15:25:00,51.5,34.8,29.42,North,0,0.0,0.0,53,0.00,,,0.00,WUHU216HW,2013-02-06 23:25:00,
2013-02-06 15:30:00,51.3,34.8,29.42,North,0,0.0,0.0,53,0.00,,,0.00,WUHU216HW,2013-02-06 23:30:00,
2013-02-06 15:35:00,51.3,34.8,29.42,North,0,0.0,0.0,53,0.00,,,0.00,WUHU216HW,2013-02-06 23:35:00,
2013-02-06 15:40:00,51.1,35.0,29.42,North,0,0.0,0.0,54,0.00,,,0.00,WUHU216HW,2013-02-06 23:40:00,
2013-02-06 15:45:00,50.9,34.4,29.42,North,0,0.0,0.0,53,0.00,,,0.00,WUHU216HW,2013-02-06 23:45:00,
2013-02-06 15:50:00,50.8,34.2,29.41,North,0,0.0,0.0,53,0.00,,,0.00,WUHU216HW,2013-02-06 23:50:00,
2013-02-06 15:55:00,50.6,34.5,29.41,North,0,0.0,0.0,54,0.00,,,0.00,WUHU216HW,2013-02-06 23:55:00,
2013-02-06 16:00:00,50.6,34.5,29.41,North,0,0.0,0.0,54,0.00,,,0.00,WUHU216HW,2013-02-07 00:00:00,
2013-02-06 16:05:00,50.6,34.5,29.41,North,0,0.0,0.0,54,0.00,,,0.00,WUHU216HW,2013-02-07 00:05:00,
2013-02-06 16:10:00,50.4,34.4,29.41,North,0,0.0,0.0,54,0.00,,,0.00,WUHU216HW,2013-02-07 00:10:00,
2013-02-06 16:15:00,50.2,34.2,29.40,North,0,0.0,0.0,54,0.00,,,0.00,WUHU216HW,2013-02-07 00:15:00,
2013-02-06 16:20:00,50.0,34.0,29.40,North,0,0.0,0.0,54,0.00,,,0.00,WUHU216HW,2013-02-07 00:20:00,
2013-02-06 16:25:00,50.0,34.0,29.40,North,0,0.0,0.0,54,0.00,,,0.00,WUHU216HW,2013-02-07 00:25:00,
2013-02-06 16:30:00,50.0,34.0,29.40,North,0,0.0,0.0,54,0.00,,,0.00,WUHU216HW,2013-02-07 00:30:00,
2013-02-06 16:35:00,49.9,33.8,29.40,North,0,0.0,0.0,54,0.00,,,0.00,WUHU216HW,2013-02-07 00:35:00,
2013-02-06 16:40:00,49.7,33.7,29.39,North,0,0.0,0.0,54,0.00,,,0.00,WUHU216HW,2013-02-07 00:40:00,
2013-02-06 16:45:00,49.7,34.1,29.39,North,0,0.0,0.0,55,0.00,,,0.00,WUHU216HW,2013-02-07 00:45:00,
2013-02-06 16:50:00,49.3,33.8,29.39,North,0,0.0,0.0,55,0.00,,,0.00,WUHU216HW,2013-02-07 00:50:00,
2013-02-06 16:55:00,49.3,33.8,29.39,North,0,0.0,0.0,55,0.00,,,0.00,WUHU216HW,2013-02-07 00:55:00,
2013-02-06 17:00:00,49.1,34.1,29.39,North,0,0.0,0.0,56,0.00,,,0.00,WUHU216HW,2013-02-07 01:00:00,
2013-02-06 17:05:00,48.8,33.8,29.39,North,0,0.0,0.0,56,0.00,,,0.00,WUHU216HW,2013-02-07 01:05:00,
2013-02-06 17:10:00,48.8,34.2,29.39,North,0,0.0,0.0,57,0.00,,,0.00,WUHU216HW,2013-02-07 01:10:00,
2013-02-06 17:15:00,48.8,34.2,29.39,North,0,0.0,0.0,57,0.00,,,0.00,WUHU216HW,2013-02-07 01:15:00,
2013-02-06 17:20:00,48.8,34.2,29.38,North,0,0.0,0.0,57,0.00,,,0.00,WUHU216HW,2013-02-07 01:20:00,
2013-02-06 17:25:00,48.8,34.2,29.38,North,0,0.0,0.0,57,0.00,,,0.00,WUHU216HW,2013-02-07 01:25:00,
2013-02-06 17:30:00,48.6,34.0,29.38,North,0,0.0,0.0,57,0.00,,,0.00,WUHU216HW,2013-02-07 01:30:00,
2013-02-06 17:35:00,48.2,33.7,29.38,North,0,0.0,0.0,57,0.00,,,0.00,WUHU216HW,2013-02-07 01:35:00,
2013-02-06 17:40:00,48.1,34.0,29.38,North,0,0.0,0.0,58,0.00,,,0.00,WUHU216HW,2013-02-07 01:40:00,
2013-02-06 17:45:00,48.1,34.0,29.38,North,0,0.0,0.0,58,0.00,,,0.00,WUHU216HW,2013-02-07 01:45:00,
2013-02-06 17:50:00,47.9,33.9,29.38,North,0,0.0,0.0,58,0.00,,,0.00,WUHU216HW,2013-02-07 01:50:00,
2013-02-06 17:55:00,47.9,33.9,29.38,North,0,0.0,0.0,58,0.00,,,0.00,WUHU216HW,2013-02-07 01:55:00,
2013-02-06 18:00:00,47.7,33.7,29.38,North,0,0.0,0.0,58,0.00,,,0.00,WUHU216HW,2013-02-07 02:00:00,
2013-02-06 18:05:00,47.5,33.5,29.38,North,0,0.0,0.0,58,0.00,,,0.00,WUHU216HW,2013-02-07 02:05:00,
2013-02-06 18:10:00,47.5,33.5,29.38,North,0,0.0,0.0,58,0.00,,,0.00,WUHU216HW,2013-02-07 02:10:00,
2013-02-06 18:15:00,47.3,33.3,29.38,North,0,0.0,0.0,58,0.00,,,0.00,WUHU216HW,2013-02-07 02:15:00,
2013-02-06 18:20:00,47.3,33.3,29.38,North,0,0.0,0.0,58,0.00,,,0.00,WUHU216HW,2013-02-07 02:20:00,
2013-02-06 18:25:00,47.3,33.8,29.38,North,0,0.0,0.0,59,0.00,,,0.00,WUHU216HW,2013-02-07 02:25:00,
2013-02-06 18:30:00,47.5,33.9,29.38,North,0,0.0,0.0,59,0.00,,,0.00,WUHU216HW,2013-02-07 02:30:00,
2013-02-06 18:35:00,47.5,33.9,29.37,North,0,0.0,0.0,59,0.00,,,0.00,WUHU216HW,2013-02-07 02:35:00,
2013-02-06 18:40:00,47.5,33.9,29.37,North,0,0.0,0.0,59,0.00,,,0.00,WUHU216HW,2013-02-07 02:40:00,
2013-02-06 18:45:00,47.2,33.6,29.37,North,0,0.0,0.0,59,0.00,,,0.00,WUHU216HW,2013-02-07 02:45:00,
2013-02-06 18:50:00,47.2,33.6,29.37,North,0,0.0,0.0,59,0.00,,,0.00,WUHU216HW,2013-02-07 02:50:00,
2013-02-06 18:55:00,47.0,33.4,29.36,North,0,0.0,0.0,59,0.00,,,0.00,WUHU216HW,2013-02-07 02:55:00,
2013-02-06 19:00:00,46.8,33.2,29.36,North,0,0.0,0.0,59,0.00,,,0.00,WUHU216HW,2013-02-07 03:00:00,
2013-02-06 19:05:00,46.6,33.0,29.36,North,0,0.0,0.0,59,0.00,,,0.00,WUHU216HW,2013-02-07 03:05:00,
2013-02-06 19:10:00,46.6,33.0,29.36,North,0,0.0,0.0,59,0.00,,,0.00,WUHU216HW,2013-02-07 03:10:00,
2013-02-06 19:15:00,46.4,32.9,29.36,North,0,0.0,0.0,59,0.00,,,0.00,WUHU216HW,2013-02-07 03:15:00,
2013-02-06 19:20:00,46.4,33.3,29.36,North,0,0.0,0.0,60,0.00,,,0.00,WUHU216HW,2013-02-07 03:20:00,
2013-02-06 19:25:00,46.3,33.1,29.36,North,0,0.0,0.0,60,0.00,,,0.00,WUHU216HW,2013-02-07 03:25:00,
2013-02-06 19:30:00,46.3,33.1,29.36,North,0,0.0,0.0,60,0.00,,,0.00,WUHU216HW,2013-02-07 03:30:00,
2013-02-06 19:35:00,46.1,32.9,29.36,North,0,0.0,0.0,60,0.00,,,0.00,WUHU216HW,2013-02-07 03:35:00,
2013-02-06 19:40:00,46.1,33.4,29.36,North,0,0.0,0.0,61,0.00,,,0.00,WUHU216HW,2013-02-07 03:40:00,
2013-02-06 19:45:00,46.1,33.4,29.35,North,0,0.0,0.0,61,0.00,,,0.00,WUHU216HW,2013-02-07 03:45:00,
2013-02-06 19:50:00,46.1,32.9,29.35,North,0,0.0,0.0,60,0.00,,,0.00,WUHU216HW,2013-02-07 03:50:00,
2013-02-06 19:55:00,46.3,33.1,29.35,North,0,0.0,0.0,60,0.00,,,0.00,WUHU216HW,2013-02-07 03:55:00,
2013-02-06 20:00:00,46.3,33.1,29.35,North,0,0.0,0.0,60,0.00,,,0.00,WUHU216HW,2013-02-07 04:00:00,
2013-02-06 20:05:00,46.1,32.9,29.35,North,0,0.0,0.0,60,0.00,,,0.00,WUHU216HW,2013-02-07 04:05:00,
2013-02-06 20:10:00,45.9,32.9,29.35,North,0,0.0,0.0,60,0.00,,,0.00,WUHU216HW,2013-02-07 04:10:00,
2013-02-06 20:15:00,45.7,32.7,29.34,North,0,0.0,0.0,60,0.00,,,0.00,WUHU216HW,2013-02-07 04:15:00,
2013-02-06 20:20:00,45.7,32.7,29.34,North,0,0.0,0.0,60,0.00,,,0.00,WUHU216HW,2013-02-07 04:20:00,
2013-02-06 20:25:00,45.7,32.7,29.34,North,0,0.0,0.0,60,0.00,,,0.00,WUHU216HW,2013-02-07 04:25:00,
2013-02-06 20:30:00,45.5,32.5,29.34,North,0,0.0,0.0,60,0.00,,,0.00,WUHU216HW,2013-02-07 04:30:00,
2013-02-06 20:35:00,45.5,32.5,29.34,North,0,0.0,0.0,60,0.00,,,0.00,WUHU216HW,2013-02-07 04:35:00,
2013-02-06 20:40:00,45.5,32.5,29.34,North,0,0.0,0.0,60,0.00,,,0.00,WUHU216HW,2013-02-07 04:40:00,
2013-02-06 20:45:00,45.4,32.7,29.34,North,0,0.0,0.0,61,0.00,,,0.00,WUHU216HW,2013-02-07 04:45:00,
2013-02-06 20:50:00,45.4,32.7,29.34,North,0,0.0,0.0,61,0.00,,,0.00,WUHU216HW,2013-02-07 04:50:00,
2013-02-06 20:55:00,45.2,32.6,29.33,North,0,0.0,0.0,61,0.00,,,0.00,WUHU216HW,2013-02-07 04:55:00,
2013-02-06 21:00:00,45.2,32.6,29.33,North,0,0.0,0.0,61,0.00,,,0.00,WUHU216HW,2013-02-07 05:00:00,
2013-02-06 21:01:00,45.4,32.7,29.33,North,0,0.0,0.0,61,0.00,,,0.00,WUHU216HW,2013-02-07 05:01:00,
2013-02-06 21:06:00,45.4,32.7,29.33,North,0,0.0,0.0,61,0.00,,,0.00,WUHU216HW,2013-02-07 05:06:00,
2013-02-06 21:11:00,45.2,32.6,29.33,North,0,0.0,0.0,61,0.00,,,0.00,WUHU216HW,2013-02-07 05:11:00,
2013-02-06 21:15:00,45.2,32.6,29.33,North,0,0.0,0.0,61,0.00,,,0.00,WUHU216HW,2013-02-07 05:15:00,
2013-02-06 21:20:00,45.0,32.4,29.33,North,0,0.0,0.0,61,0.00,,,0.00,WUHU216HW,2013-02-07 05:20:00,
2013-02-06 21:25:00,45.0,32.4,29.33,North,0,0.0,0.0,61,0.00,,,0.00,WUHU216HW,2013-02-07 05:25:00,
2013-02-06 21:30:00,45.0,32.4,29.33,North,0,0.0,0.0,61,0.00,,,0.00,WUHU216HW,2013-02-07 05:30:00,
2013-02-06 21:35:00,44.8,32.2,29.33,North,0,0.0,0.0,61,0.00,,,0.00,WUHU216HW,2013-02-07 05:35:00,
2013-02-06 21:40:00,44.8,32.2,29.32,North,0,0.0,0.0,61,0.00,,,0.00,WUHU216HW,2013-02-07 05:40:00,
2013-02-06 21:45:00,44.8,32.6,29.32,North,0,0.0,0.0,62,0.00,,,0.00,WUHU216HW,2013-02-07 05:45:00,
2013-02-06 21:50:00,44.8,32.6,29.32,North,0,0.0,0.0,62,0.00,,,0.00,WUHU216HW,2013-02-07 05:50:00,
2013-02-06 21:56:00,44.6,32.4,29.31,North,0,0.0,0.0,62,0.00,,,0.00,WUHU216HW,2013-02-07 05:56:00,
2013-02-06 22:01:00,44.3,32.0,29.31,North,0,0.0,0.0,62,0.00,,,0.00,WUHU216HW,2013-02-07 06:01:00,
2013-02-06 22:06:00,44.3,32.5,29.31,North,0,0.0,0.0,63,0.00,,,0.00,WUHU216HW,2013-02-07 06:06:00,
2013-02-06 22:11:00,44.1,32.3,29.31,North,0,0.0,0.0,63,0.00,,,0.00,WUHU216HW,2013-02-07 06:11:00,
2013-02-06 22:16:00,44.3,32.5,29.31,North,0,0.0,0.0,63,0.00,,,0.00,WUHU216HW,2013-02-07 06:16:00,
2013-02-06 22:21:00,44.3,32.5,29.31,North,0,0.0,0.0,63,0.00,,,0.00,WUHU216HW,2013-02-07 06:21:00,
2013-02-06 22:26:00,44.3,32.5,29.30,North,0,0.0,0.0,63,0.00,,,0.00,WUHU216HW,2013-02-07 06:26:00,
2013-02-06 22:31:00,43.9,32.1,29.31,North,0,0.0,0.0,63,0.00,,,0.00,WUHU216HW,2013-02-07 06:31:00,
2013-02-06 22:36:00,43.7,32.3,29.30,North,0,0.0,0.0,64,0.00,,,0.00,WUHU216HW,2013-02-07 06:36:00,
2013-02-06 22:41:00,43.6,32.1,29.30,North,0,0.0,0.0,64,0.00,,,0.00,WUHU216HW,2013-02-07 06:41:00,
2013-02-06 22:46:00,43.2,32.2,29.30,North,0,0.0,0.0,65,0.00,,,0.00,WUHU216HW,2013-02-07 06:46:00,
2013-02-06 22:51:00,43.2,32.2,29.29,North,0,0.0,0.0,65,0.00,,,0.00,WUHU216HW,2013-02-07 06:51:00,
2013-02-06 22:56:00,43.0,32.1,29.30,North,0,0.0,0.0,65,0.00,,,0.00,WUHU216HW,2013-02-07 06:56:00,
2013-02-06 23:01:00,42.8,31.9,29.30,North,0,0.0,0.0,65,0.00,,,0.00,WUHU216HW,2013-02-07 07:01:00,
2013-02-06 23:06:00,42.8,32.2,29.29,North,0,0.0,0.0,66,0.00,,,0.00,WUHU216HW,2013-02-07 07:06:00,
2013-02-06 23:11:00,42.7,32.0,29.29,North,0,0.0,0.0,66,0.00,,,0.00,WUHU216HW,2013-02-07 07:11:00,
2013-02-06 23:16:00,42.8,32.2,29.29,North,0,0.0,0.0,66,0.00,,,0.00,WUHU216HW,2013-02-07 07:16:00,
2013-02-06 23:21:00,42.7,32.0,29.29,North,0,0.0,0.0,66,0.00,,,0.00,WUHU216HW,2013-02-07 07:21:00,
2013-02-06 23:26:00,42.5,32.0,29.28,North,0,0.0,0.0,66,0.00,,,0.00,WUHU216HW,2013-02-07 07:26:00,
2013-02-06 23:31:00,42.5,32.0,29.29,North,0,0.0,0.0,66,0.00,,,0.00,WUHU216HW,2013-02-07 07:31:00,
2013-02-06 23:36:00,42.8,32.2,29.28,North,0,0.0,0.0,66,0.00,,,0.00,WUHU216HW,2013-02-07 07:36:00,
2013-02-06 23:41:00,42.8,32.2,29.29,North,0,0.0,0.0,66,0.00,,,0.00,WUHU216HW,2013-02-07 07:41:00,
2013-02-06 23:46:00,42.8,32.2,29.28,North,0,0.0,0.0,66,0.00,,,0.00,WUHU216HW,2013-02-07 07:46:00,
2013-02-06 23:51:00,42.8,32.2,29.28,North,0,0.0,0.0,66,0.00,,,0.00,WUHU216HW,2013-02-07 07:51:00,
2013-02-06 23:56:00,42.5,32.0,29.28,North,0,0.0,0.0,66,0.00,,,0.00,WUHU216HW,2013-02-07 07:56:00,